createdAt,value
2022-09-04T00:00:00.170Z,1.1
2022-09-04T00:10:00.180Z,1.1
2022-09-04T00:15:00.161Z,1.1
2022-09-04T00:20:00.382Z,1.1
2022-09-04T00:25:00.168Z,1.1
2022-09-04T00:30:00.351Z,1.1
2022-09-04T00:35:00.161Z,1.1
2022-09-04T00:40:00.342Z,1.1
2022-09-04T00:45:00.242Z,1.1
2022-09-04T00:50:00.170Z,1.1
2022-09-04T00:55:00.158Z,1.1
2022-09-04T01:00:00.168Z,1.1
2022-09-04T01:05:00.158Z,1.1
2022-09-04T01:10:00.224Z,1.1
2022-09-04T01:15:00.159Z,1.1
2022-09-04T01:20:00.157Z,1.1
2022-09-04T01:25:00.167Z,1.1
2022-09-04T01:30:00.204Z,1.1
2022-09-04T01:35:00.167Z,1.1
2022-09-04T01:40:00.317Z,1.1
2022-09-04T01:45:00.223Z,1.1
2022-09-04T01:50:00.241Z,1.1
2022-09-04T01:55:00.297Z,1.1
2022-09-04T02:00:00.310Z,1.1
2022-09-04T02:05:03.957Z,1.1
2022-09-04T02:10:00.264Z,1.1
2022-09-04T02:15:00.199Z,1.1
2022-09-04T02:20:00.180Z,1.1
2022-09-04T02:25:00.190Z,1.1
2022-09-04T02:30:00.196Z,1.1
2022-09-04T02:35:00.194Z,1.1
2022-09-04T02:40:00.266Z,1.1
2022-09-04T02:45:00.194Z,1.1
2022-09-04T02:50:00.175Z,1.1
2022-09-04T02:55:00.179Z,1.1
2022-09-04T03:00:00.171Z,1.1
2022-09-04T03:05:00.170Z,1.1
2022-09-04T03:10:00.173Z,1.1
2022-09-04T03:15:00.191Z,1.1
2022-09-04T03:20:00.255Z,1.1
2022-09-04T03:25:00.159Z,1.1
2022-09-04T03:30:00.181Z,1.1
2022-09-04T03:35:00.218Z,1.1
2022-09-04T03:40:00.305Z,1.1
2022-09-04T03:45:00.213Z,1.1
2022-09-04T03:50:00.178Z,1.1
2022-09-04T03:55:00.166Z,1.1
2022-09-04T04:00:00.192Z,1.1
2022-09-04T04:05:00.273Z,1.1
2022-09-04T04:10:00.185Z,1.1
2022-09-04T04:15:00.165Z,1.1
2022-09-04T04:20:00.281Z,1.1
2022-09-04T04:25:00.285Z,2.1
2022-09-04T04:30:00.194Z,5.9
2022-09-04T04:35:00.175Z,14.6
2022-09-04T04:40:00.327Z,30.2
2022-09-04T04:45:00.164Z,54.9
2022-09-04T04:50:00.185Z,87.6
2022-09-04T04:55:00.164Z,126.9
2022-09-04T05:00:00.172Z,171.1
2022-09-04T05:05:00.185Z,222.6
2022-09-04T05:10:00.173Z,269.5
2022-09-04T05:15:00.165Z,322.5
2022-09-04T05:20:00.212Z,376.7
2022-09-04T05:25:00.172Z,445.4
2022-09-04T05:30:00.161Z,607.8
2022-09-04T05:35:00.172Z,539.3
2022-09-04T05:40:01.435Z,744.8
2022-09-04T05:45:00.205Z,790.8
2022-09-04T05:50:00.158Z,1016.5
2022-09-04T05:55:00.189Z,781.4
2022-09-04T06:00:00.170Z,701.6
2022-09-04T06:05:00.165Z,934.9
2022-09-04T06:10:00.184Z,1403.9
2022-09-04T06:15:00.195Z,1245.7
2022-09-04T06:20:00.177Z,1132
2022-09-04T06:25:00.164Z,1245.7
2022-09-04T06:30:00.161Z,1187.5
2022-09-04T07:00:00.192Z,946.1
2022-09-04T07:05:00.159Z,957.5
2022-09-04T07:20:00.183Z,1079.1
2022-09-04T07:35:00.201Z,1028.7
2022-09-04T07:40:00.493Z,1437.9
2022-09-04T07:45:00.267Z,1582.3
2022-09-04T07:50:00.289Z,1720.4
2022-09-04T07:55:00.223Z,1826.4
2022-09-04T08:00:00.230Z,1962.2
2022-09-04T08:05:03.434Z,2108.2
2022-09-04T08:10:00.158Z,2211.5
2022-09-04T08:25:00.172Z,2433.5
2022-09-04T08:30:01.412Z,2492.4
2022-09-04T08:35:00.148Z,2522.4
2022-09-04T08:40:00.309Z,2552.8
2022-09-04T08:50:00.197Z,2552.8
2022-09-04T08:55:00.190Z,2552.8
2022-09-04T09:00:00.173Z,2583.5
2022-09-04T09:05:00.202Z,2583.5
2022-09-04T09:10:00.172Z,2614.6
2022-09-04T09:15:00.169Z,2646
2022-09-04T09:20:00.172Z,2646
2022-09-04T09:25:00.169Z,2677.9
2022-09-04T09:30:00.209Z,2677.9
2022-09-04T09:35:00.164Z,2710.1
2022-09-04T09:40:00.328Z,2710.1
2022-09-04T09:45:00.176Z,2742.6
2022-09-04T09:50:00.211Z,2775.6
2022-09-04T09:55:00.179Z,2742.6
2022-09-04T10:00:00.173Z,2809
2022-09-04T10:05:00.223Z,2775.6
2022-09-04T10:10:00.179Z,2809
2022-09-04T10:15:00.172Z,2842.8
2022-09-04T10:20:00.173Z,2877.1
2022-09-04T10:25:00.172Z,2946.7
2022-09-04T10:30:00.199Z,2946.7
2022-09-04T10:35:00.161Z,2982.2
2022-09-04T10:40:00.370Z,3054.3
2022-09-04T10:45:00.203Z,3128.2
2022-09-04T10:50:00.178Z,3281.6
2022-09-04T10:55:00.180Z,3568
2022-09-04T11:00:00.170Z,3525.6
2022-09-04T11:05:00.169Z,3654.5
2022-09-04T11:10:00.179Z,3879.6
2022-09-04T11:15:00.175Z,4069.8
2022-09-04T11:20:00.176Z,4586.8
2022-09-04T11:25:00.189Z,4869.3
2022-09-04T11:30:00.166Z,5294.6
2022-09-04T11:35:00.178Z,5756.7
2022-09-04T11:40:00.325Z,6334.7
2022-09-04T11:45:00.160Z,6410.8
2022-09-04T11:50:00.173Z,4987.1
2022-09-04T11:55:00.164Z,8143.1
2022-09-04T12:00:00.341Z,6487.9
2022-09-04T12:05:00.186Z,5047.1
2022-09-04T12:10:00.170Z,5620.7
2022-09-04T12:15:07.661Z,4372.4
2022-09-04T12:20:00.194Z,4927.9
2022-09-04T12:25:00.165Z,5553.9
2022-09-04T12:30:00.164Z,2614.6
2022-09-04T12:35:00.162Z,2583.5
2022-09-04T12:40:00.391Z,2809
2022-09-04T12:45:00.173Z,3242.6
2022-09-04T12:50:00.169Z,5967.1
2022-09-04T12:55:00.171Z,3401.4
2022-09-04T13:00:00.248Z,1915.9
2022-09-04T13:05:00.175Z,2522.4
2022-09-04T13:10:00.182Z,1893.1
2022-09-04T13:15:00.166Z,3611.1
2022-09-04T13:20:00.187Z,5358.2
2022-09-04T13:25:00.182Z,4586.8
2022-09-04T13:30:03.271Z,4021.3
2022-09-04T13:35:00.186Z,3568
2022-09-04T13:40:00.347Z,2614.6
2022-09-04T13:45:00.180Z,4269.1
2022-09-04T13:50:00.192Z,3091.1
2022-09-04T13:55:00.170Z,4021.3
2022-09-04T14:00:00.178Z,2742.6
2022-09-04T14:05:00.188Z,3483.7
2022-09-04T14:10:00.180Z,2809
2022-09-04T14:15:00.204Z,2159.2
2022-09-04T14:20:00.191Z,2677.9
2022-09-04T14:25:00.189Z,2376
2022-09-04T14:30:00.181Z,2009.8
2022-09-04T14:35:00.170Z,2376
2022-09-04T14:40:00.299Z,2292.3
2022-09-04T14:45:00.211Z,2462.8
2022-09-04T14:50:00.168Z,2185.2
2022-09-04T14:55:00.184Z,1544.8
2022-09-04T15:00:00.192Z,2034
2022-09-04T15:05:00.215Z,2034
2022-09-04T15:10:00.174Z,1915.9
2022-09-04T15:15:00.185Z,1893.1
2022-09-04T15:20:00.210Z,1306.7
2022-09-04T15:25:00.173Z,1201.7
2022-09-04T15:30:00.180Z,1338.3
2022-09-04T15:35:00.175Z,1762
2022-09-04T15:40:00.358Z,1291.2
2022-09-04T15:45:00.195Z,1720.4
2022-09-04T15:50:00.330Z,1699.9
2022-09-04T15:55:00.161Z,1699.9
2022-09-04T16:00:00.284Z,1679.7
2022-09-04T16:05:00.171Z,1187.5
2022-09-04T16:10:00.305Z,1173.3
2022-09-04T16:15:00.174Z,1544.8
2022-09-04T16:20:00.283Z,1455.2
2022-09-04T16:25:00.167Z,1322.4
2022-09-04T16:30:00.200Z,1201.7
2022-09-04T16:35:00.182Z,1245.7
2022-09-04T16:40:00.569Z,1216.2
2022-09-04T16:45:00.193Z,1145.6
2022-09-04T16:50:00.194Z,1079.1
2022-09-04T16:55:00.182Z,1028.7
2022-09-04T17:00:00.183Z,969
2022-09-04T17:05:00.201Z,901.9
2022-09-04T17:10:00.168Z,849.6
2022-09-04T17:15:00.162Z,790.8
2022-09-04T17:20:00.177Z,727.2
2022-09-04T17:29:13.399Z,653
2022-09-04T17:30:00.175Z,572.5
2022-09-04T17:40:36.662Z,484.3
2022-09-04T17:40:54.952Z,395.2
2022-09-04T17:45:00.208Z,303.8
2022-09-04T17:50:00.207Z,225.3
2022-09-04T17:55:00.168Z,161.2
2022-09-04T18:00:00.175Z,99.9
2022-09-04T18:05:00.179Z,56.9
2022-09-04T18:10:00.233Z,30.2
2022-09-04T18:15:32.848Z,14.9
2022-09-04T18:20:00.321Z,6.2
2022-09-04T18:25:00.237Z,2.2
2022-09-04T18:33:10.495Z,1.1
2022-09-04T18:37:25.490Z,1.1
2022-09-04T18:40:00.290Z,1.1
2022-09-04T18:50:34.792Z,1.1
2022-09-04T18:50:50.391Z,1.1
2022-09-04T18:55:00.176Z,1.1
2022-09-04T19:00:07.980Z,1.1
2022-09-04T19:05:00.173Z,1.1
2022-09-04T19:10:00.170Z,1.1
2022-09-04T19:15:00.171Z,1.1
2022-09-04T19:20:00.185Z,1.1
2022-09-04T19:25:00.173Z,1.1
2022-09-04T19:30:10.547Z,1.1
2022-09-04T19:35:00.173Z,1.1
2022-09-04T19:46:06.569Z,1.1
2022-09-04T19:46:11.850Z,1.1
2022-09-04T19:53:00.310Z,1.1
2022-09-04T19:55:24.015Z,1.1
2022-09-04T20:00:00.829Z,1.1
2022-09-04T20:05:00.174Z,1.1
2022-09-04T20:10:00.172Z,1.1
2022-09-04T20:15:00.185Z,1.1
2022-09-04T20:20:00.184Z,1.1
2022-09-04T20:25:02.352Z,1.1
2022-09-04T20:30:00.167Z,1.1
2022-09-04T20:35:00.175Z,1.1
2022-09-04T20:40:00.321Z,1.1
2022-09-04T20:46:26.490Z,1.1
2022-09-04T20:53:00.397Z,1.1
2022-09-04T20:55:00.162Z,1.1
2022-09-04T21:03:08.525Z,1.1
2022-09-04T21:05:00.280Z,1.1
2022-09-04T21:10:00.193Z,1.1
2022-09-04T21:15:00.189Z,1.1
2022-09-04T21:20:00.169Z,1.1
2022-09-04T21:25:00.174Z,1.1
2022-09-04T21:30:00.208Z,1.1
2022-09-04T21:35:00.176Z,1.1
2022-09-04T21:40:00.269Z,1.1
2022-09-04T21:45:00.186Z,1.1
2022-09-04T21:50:00.181Z,1.1
2022-09-04T21:57:28.755Z,1.1
2022-09-04T22:02:38.662Z,1.1
2022-09-04T22:05:00.447Z,1.1
2022-09-04T22:13:32.036Z,1.1
2022-09-04T22:15:00.167Z,1.1
2022-09-04T22:20:00.193Z,1.1
2022-09-04T22:25:00.173Z,1.1
2022-09-04T22:30:00.162Z,1.1
2022-09-04T22:35:00.166Z,1.1
2022-09-04T22:40:00.340Z,1.1
2022-09-04T22:45:09.914Z,1.1
2022-09-04T22:50:00.164Z,1.1
2022-09-04T22:55:00.166Z,1.1
2022-09-04T23:00:00.167Z,1.1
2022-09-04T23:05:00.248Z,1.1
2022-09-04T23:14:00.285Z,1.1
2022-09-04T23:15:07.928Z,1.1
2022-09-04T23:26:35.879Z,1.1
2022-09-04T23:26:48.001Z,1.1
2022-09-04T23:30:00.166Z,1.1
2022-09-04T23:35:14.998Z,1.1
2022-09-04T23:40:00.390Z,1.1
2022-09-04T23:45:00.225Z,1.1
2022-09-04T23:50:00.194Z,1.1
2022-09-04T23:55:00.185Z,1.1
